This is the latest recevied weather packets stored in our database for station/object WB0YAF-8. If no packets are shown the sender has not sent any weather packets the latest 10 day(s).
| Time | Temp. | Humidity | Pressure | Rain* | Wind** | Luminosity | Snow |
|---|---|---|---|---|---|---|---|
| 1778252980 | 10.56° C | 41% | 1018.8 hPa | 0 mm | - | - | - |
| 1778252679 | 10° C | 41% | 1018.8 hPa | 0 mm | - | - | - |
| 1778252379 | 10° C | 41% | 1018.8 hPa | 0 mm | - | - | - |
| 1778252080 | 10° C | 43% | 1018.8 hPa | 0 mm | - | - | - |
| 1778251780 | 10° C | 42% | 1018.8 hPa | 0 mm | - | - | - |
| 1778251480 | 10° C | 43% | 1018.8 hPa | 0 mm | - | - | - |
| 1778251179 | 9.44° C | 45% | 1018.8 hPa | 0 mm | - | - | - |
| 1778250879 | 8.89° C | 47% | 1018.8 hPa | 0 mm | - | - | - |
| 1778250579 | 9.44° C | 46% | 1018.8 hPa | 0 mm | - | - | - |
| 1778250279 | 8.89° C | 48% | 1018.8 hPa | 0 mm | - | - | - |
| 1778249980 | 8.89° C | 48% | 1018.8 hPa | 0 mm | - | - | - |
| 1778249679 | 8.33° C | 50% | 1018.3 hPa | 0 mm | - | - | - |
| 1778249380 | 8.33° C | 50% | 1017.8 hPa | 0 mm | - | - | - |
| 1778249080 | 8.33° C | 49% | 1017.8 hPa | 0 mm | - | - | - |
| 1778248779 | 8.33° C | 50% | 1018.1 hPa | 0 mm | - | - | - |
| 1778248480 | 8.33° C | 49% | 1018.8 hPa | 0 mm | - | - | - |
| 1778248180 | 8.33° C | 47% | 1018.8 hPa | 0 mm | - | - | - |
| 1778247880 | 8.89° C | 45% | 1018.3 hPa | 0 mm | - | - | - |
| 1778247579 | 8.89° C | 42% | 1017.8 hPa | 0 mm | - | - | - |
| 1778247279 | 10.56° C | 38% | 1017.8 hPa | 0 mm | - | - | - |
| 1778246979 | 11.11° C | 37% | 1017.8 hPa | 0 mm | - | - | - |
| 1778246680 | 11.67° C | 36% | 1017.8 hPa | 0 mm | - | - | - |
| 1778246379 | 12.22° C | 36% | 1017.8 hPa | 0 mm | - | - | - |
| 1778246079 | 13.89° C | 35% | 1017.8 hPa | 0 mm | - | - | - |
| 1778245780 | 13.89° C | 35% | 1017.8 hPa | 0 mm | - | - | - |
* Rain latest hour (hover to see other rain measurements)
** Current wind speed in m/s (hover to see current wind gust speed)